METAR Data
IDs: Format: Raw Decoded Include TAF

Data at: 2217 UTC 01 Dec 2021

METAR for:KCVG (Cincinnati Intl, KY, US)
Text:KCVG 012152Z 17007KT 7SM -RA BKN065 OVC090 09/06 A2987 RMK AO2 RAB50 SLP115 P0000 T00940061
Temperature: 9.4°C ( 49°F)
Dewpoint: 6.1°C ( 43°F) [RH = 80%]
Pressure (altimeter):29.87 inches Hg (1011.6 mb) [Sea level pressure: 1011.5 mb]
Winds:from the S (170 degrees) at 8 MPH (7 knots; 3.6 m/s)
Visibility: 7 sm ( 11 km)
Ceiling:6500 feet AGL
Clouds: broken clouds at 6500 feet AGL, overcast cloud deck at 9000 feet AGL
Weather:-RA (light rain)